Mears, Virginia
Current Conditions -  °F | °C
As of 10:54 AM on Saturday 22 Nov 2014 (Local Time) from KWAL Reporting Station
Clear Clear  
Wind Chill:   Ceiling: Unl
Heat Index:   Visibility: 10mi
Dew Point: -9°   Wind: 10mph
Humidity: 31%   Direction: 250°WSW
Pressure: 30.54"   Gusts: NA
Location:  37.86°N, 75.62°W
Report Text: KWAL 221554Z AUTO 25009KT 10SM CLR 07/M09 A3054 RMK AO2 SLP338 T00671094
Loading
Personal Weather Stations






























Interactive Weather Map New forecast layout! Learn more

10-Day Weather Forecast

Advertisements
Track Severe Weather on mobile